RYR411 FQMA-FAOR
Flight info
| Callsign | RYR411 |
|---|---|
| Flight time | 0h 57m |
| Altitude | 24000 |
| Route | ANVAK DCT IMKAN UT446 IBGUB |
| Aircraft | B38M/M-SDE1FGHILORVWXY/HB1 |
Departure
| Time | 2026-04-23 11:35 |
|---|---|
| Airport | Maputo Airport (FQMA) |
Arrival
| Time | 2026-04-23 12:32 |
|---|---|
| Airport | O.R. Tambo International Airport (FAOR) |
| Time | Latitude | Longitude | Altitude | Speed | Heading |
|---|---|---|---|---|---|
| 2026-04-23 11:21 | -25.91626 | 32.57744 | 139 ft | 11 kts | 26° |
| 2026-04-23 11:21 | -25.91553 | 32.57796 | 140 ft | 14 kts | 40° |
| 2026-04-23 11:21 | -25.91478 | 32.57850 | 141 ft | 13 kts | 16° |
| 2026-04-23 11:21 | -25.91401 | 32.57880 | 142 ft | 0 kts | 27° |
| 2026-04-23 11:27 | -25.91377 | 32.57894 | 142 ft | 20 kts | 27° |
| 2026-04-23 11:27 | -25.91130 | 32.58044 | 145 ft | 50 kts | 29° |
| 2026-04-23 11:27 | -25.90970 | 32.58143 | 146 ft | 22 kts | 29° |
| 2026-04-23 11:28 | -25.90830 | 32.58230 | 147 ft | 24 kts | 29° |
| 2026-04-23 11:28 | -25.90679 | 32.58322 | 148 ft | 26 kts | 28° |
| 2026-04-23 11:28 | -25.90516 | 32.58419 | 150 ft | 27 kts | 28° |
| 2026-04-23 11:28 | -25.90345 | 32.58525 | 152 ft | 29 kts | 29° |
| 2026-04-23 11:29 | -25.90164 | 32.58636 | 154 ft | 30 kts | 28° |
| 2026-04-23 11:29 | -25.89975 | 32.58750 | 156 ft | 32 kts | 29° |
| 2026-04-23 11:29 | -25.89776 | 32.58874 | 157 ft | 33 kts | 29° |
| 2026-04-23 11:29 | -25.89704 | 32.58918 | 158 ft | 0 kts | 28° |
| 2026-04-23 11:33 | -25.89697 | 32.58922 | 158 ft | 6 kts | 28° |
| 2026-04-23 11:33 | -25.89637 | 32.58939 | 158 ft | 11 kts | 348° |
| 2026-04-23 11:33 | -25.89606 | 32.58864 | 157 ft | 14 kts | 257° |
| 2026-04-23 11:34 | -25.89641 | 32.58756 | 156 ft | 17 kts | 229° |
| 2026-04-23 11:34 | -25.89758 | 32.58674 | 155 ft | 33 kts | 209° |
| 2026-04-23 11:34 | -25.90170 | 32.58422 | 153 ft | 104 kts | 208° |
| 2026-04-23 11:34 | -25.90987 | 32.57922 | 146 ft | 161 kts | 209° |
| 2026-04-23 11:35 | -25.91971 | 32.57315 | 826 ft | 166 kts | 208° |
| 2026-04-23 11:35 | -25.92781 | 32.56425 | 1738 ft | 171 kts | 241° |
| 2026-04-23 11:35 | -25.92790 | 32.54976 | 2378 ft | 211 kts | 279° |
| 2026-04-23 11:35 | -25.92121 | 32.53409 | 2945 ft | 239 kts | 298° |
| 2026-04-23 11:36 | -25.91167 | 32.51790 | 3504 ft | 261 kts | 298° |
| 2026-04-23 11:36 | -25.90225 | 32.50033 | 4167 ft | 271 kts | 297° |
| 2026-04-23 11:36 | -25.89289 | 32.48215 | 5115 ft | 273 kts | 297° |
| 2026-04-23 11:36 | -25.88362 | 32.46357 | 5945 ft | 277 kts | 297° |
| 2026-04-23 11:37 | -25.87448 | 32.44470 | 6808 ft | 279 kts | 297° |
| 2026-04-23 11:37 | -25.86557 | 32.42554 | 7646 ft | 279 kts | 296° |
| 2026-04-23 11:37 | -25.85692 | 32.40618 | 8462 ft | 281 kts | 296° |
| 2026-04-23 11:37 | -25.84842 | 32.38664 | 9303 ft | 282 kts | 297° |
| 2026-04-23 11:38 | -25.84004 | 32.36687 | 10121 ft | 283 kts | 297° |
| 2026-04-23 11:38 | -25.83183 | 32.34699 | 10880 ft | 284 kts | 296° |
| 2026-04-23 11:38 | -25.82340 | 32.32716 | 11765 ft | 284 kts | 296° |
| 2026-04-23 11:38 | -25.81507 | 32.30767 | 12680 ft | 283 kts | 296° |
| 2026-04-23 11:39 | -25.80652 | 32.28803 | 13578 ft | 283 kts | 296° |
| 2026-04-23 11:39 | -25.79784 | 32.26844 | 14404 ft | 283 kts | 296° |
| 2026-04-23 11:39 | -25.78915 | 32.24888 | 15167 ft | 282 kts | 296° |
| 2026-04-23 11:39 | -25.78050 | 32.22939 | 15916 ft | 282 kts | 296° |
| 2026-04-23 11:40 | -25.77178 | 32.20977 | 16754 ft | 285 kts | 296° |
| 2026-04-23 11:40 | -25.76277 | 32.18953 | 17270 ft | 302 kts | 296° |
| 2026-04-23 11:40 | -25.75278 | 32.16817 | 17643 ft | 322 kts | 298° |
| 2026-04-23 11:40 | -25.74207 | 32.14549 | 17938 ft | 342 kts | 298° |
| 2026-04-23 11:41 | -25.73093 | 32.12179 | 18165 ft | 361 kts | 298° |
| 2026-04-23 11:41 | -25.71912 | 32.09665 | 18473 ft | 375 kts | 298° |
| 2026-04-23 11:41 | -25.70701 | 32.07086 | 19031 ft | 377 kts | 298° |
| 2026-04-23 11:41 | -25.69484 | 32.04497 | 19612 ft | 380 kts | 297° |
| 2026-04-23 11:42 | -25.68332 | 32.01857 | 20167 ft | 383 kts | 291° |
| 2026-04-23 11:42 | -25.67683 | 31.98992 | 20740 ft | 386 kts | 278° |
| 2026-04-23 11:42 | -25.67404 | 31.96020 | 21293 ft | 389 kts | 278° |
| 2026-04-23 11:42 | -25.67081 | 31.93031 | 21837 ft | 391 kts | 278° |
| 2026-04-23 11:43 | -25.66745 | 31.90030 | 22413 ft | 394 kts | 278° |
| 2026-04-23 11:43 | -25.66400 | 31.87012 | 22937 ft | 397 kts | 278° |
| 2026-04-23 11:43 | -25.66148 | 31.83954 | 23453 ft | 401 kts | 272° |
| 2026-04-23 11:43 | -25.66371 | 31.80905 | 23961 ft | 404 kts | 266° |
| 2026-04-23 11:44 | -25.66636 | 31.77790 | 24267 ft | 409 kts | 267° |
| 2026-04-23 11:44 | -25.66880 | 31.74651 | 24367 ft | 408 kts | 267° |
| 2026-04-23 11:44 | -25.67113 | 31.71517 | 24389 ft | 408 kts | 268° |
| 2026-04-23 11:44 | -25.67339 | 31.68389 | 24391 ft | 407 kts | 268° |
| 2026-04-23 11:45 | -25.67562 | 31.65260 | 24396 ft | 407 kts | 268° |
| 2026-04-23 11:45 | -25.67785 | 31.62126 | 24397 ft | 408 kts | 268° |
| 2026-04-23 11:45 | -25.68004 | 31.59033 | 24402 ft | 408 kts | 268° |
| 2026-04-23 11:45 | -25.68225 | 31.55900 | 24403 ft | 408 kts | 268° |
| 2026-04-23 11:46 | -25.68445 | 31.52768 | 24410 ft | 408 kts | 268° |
| 2026-04-23 11:46 | -25.68665 | 31.49633 | 24411 ft | 408 kts | 268° |
| 2026-04-23 11:46 | -25.68884 | 31.46502 | 24411 ft | 407 kts | 268° |
| 2026-04-23 11:46 | -25.69102 | 31.43375 | 24415 ft | 407 kts | 268° |
| 2026-04-23 11:47 | -25.69319 | 31.40247 | 24419 ft | 407 kts | 268° |
| 2026-04-23 11:47 | -25.69536 | 31.37121 | 24424 ft | 407 kts | 268° |
| 2026-04-23 11:47 | -25.69752 | 31.33994 | 24414 ft | 406 kts | 268° |
| 2026-04-23 11:47 | -25.69967 | 31.30873 | 24424 ft | 406 kts | 268° |
| 2026-04-23 11:48 | -25.70178 | 31.27794 | 24428 ft | 406 kts | 268° |
| 2026-04-23 11:48 | -25.70391 | 31.24673 | 24428 ft | 405 kts | 268° |
| 2026-04-23 11:48 | -25.70603 | 31.21560 | 24427 ft | 405 kts | 268° |
| 2026-04-23 11:48 | -25.70816 | 31.18441 | 24434 ft | 406 kts | 268° |
| 2026-04-23 11:49 | -25.71027 | 31.15322 | 24435 ft | 406 kts | 268° |
| 2026-04-23 11:49 | -25.71237 | 31.12208 | 24439 ft | 405 kts | 268° |
| 2026-04-23 11:49 | -25.71376 | 31.10144 | 24445 ft | 405 kts | 268° |
| 2026-04-23 11:49 | -25.71653 | 31.06020 | 24440 ft | 405 kts | 268° |
| 2026-04-23 11:50 | -25.71861 | 31.02907 | 24446 ft | 405 kts | 268° |
| 2026-04-23 11:50 | -25.72069 | 30.99800 | 24442 ft | 404 kts | 268° |
| 2026-04-23 11:50 | -25.72275 | 30.96691 | 24450 ft | 404 kts | 268° |
| 2026-04-23 11:50 | -25.72481 | 30.93585 | 24446 ft | 404 kts | 268° |
| 2026-04-23 11:51 | -25.72686 | 30.90476 | 24451 ft | 404 kts | 268° |
| 2026-04-23 11:51 | -25.72822 | 30.88416 | 24449 ft | 404 kts | 268° |
| 2026-04-23 11:51 | -25.73026 | 30.85308 | 24461 ft | 404 kts | 268° |
| 2026-04-23 11:51 | -25.73230 | 30.82201 | 24454 ft | 404 kts | 268° |
| 2026-04-23 11:52 | -25.73498 | 30.78087 | 24463 ft | 404 kts | 268° |
| 2026-04-23 11:52 | -25.73700 | 30.74980 | 24456 ft | 404 kts | 268° |
| 2026-04-23 11:52 | -25.73901 | 30.71875 | 24468 ft | 404 kts | 268° |
| 2026-04-23 11:52 | -25.74036 | 30.69777 | 24466 ft | 404 kts | 268° |
| 2026-04-23 11:53 | -25.74234 | 30.66713 | 24474 ft | 404 kts | 268° |
| 2026-04-23 11:53 | -25.74433 | 30.63613 | 24466 ft | 403 kts | 268° |
| 2026-04-23 11:53 | -25.74632 | 30.60506 | 24460 ft | 404 kts | 268° |
| 2026-04-23 11:53 | -25.74829 | 30.57407 | 24470 ft | 403 kts | 268° |
| 2026-04-23 11:54 | -25.75026 | 30.54300 | 24478 ft | 403 kts | 268° |
| 2026-04-23 11:54 | -25.75222 | 30.51204 | 24473 ft | 403 kts | 268° |
| 2026-04-23 11:54 | -25.75418 | 30.48105 | 24471 ft | 403 kts | 268° |
| 2026-04-23 11:54 | -25.75613 | 30.45008 | 24483 ft | 402 kts | 268° |
| 2026-04-23 11:55 | -25.75807 | 30.41914 | 24481 ft | 402 kts | 268° |
| 2026-04-23 11:55 | -25.75998 | 30.38863 | 24481 ft | 402 kts | 268° |
| 2026-04-23 11:55 | -25.76190 | 30.35774 | 24484 ft | 402 kts | 268° |
| 2026-04-23 11:55 | -25.76381 | 30.32685 | 24482 ft | 401 kts | 268° |
| 2026-04-23 11:56 | -25.76573 | 30.29595 | 24479 ft | 401 kts | 268° |
| 2026-04-23 11:56 | -25.76763 | 30.26508 | 24479 ft | 401 kts | 268° |
| 2026-04-23 11:56 | -25.76952 | 30.23425 | 24479 ft | 401 kts | 268° |
| 2026-04-23 11:56 | -25.77141 | 30.20342 | 24479 ft | 401 kts | 268° |
| 2026-04-23 11:57 | -25.77329 | 30.17255 | 24495 ft | 401 kts | 268° |
| 2026-04-23 11:57 | -25.77514 | 30.14212 | 24476 ft | 401 kts | 268° |
| 2026-04-23 11:57 | -25.77700 | 30.11136 | 24475 ft | 400 kts | 268° |
| 2026-04-23 11:57 | -25.77886 | 30.08068 | 24340 ft | 397 kts | 268° |
| 2026-04-23 11:58 | -25.78070 | 30.05003 | 24200 ft | 398 kts | 268° |
| 2026-04-23 11:58 | -25.78254 | 30.01940 | 24055 ft | 398 kts | 268° |
| 2026-04-23 11:58 | -25.78437 | 29.98875 | 23887 ft | 398 kts | 268° |
| 2026-04-23 11:58 | -25.78619 | 29.95811 | 24069 ft | 397 kts | 268° |
| 2026-04-23 11:59 | -25.78800 | 29.92754 | 24321 ft | 401 kts | 268° |
| 2026-04-23 11:59 | -25.78982 | 29.89691 | 23871 ft | 396 kts | 268° |
| 2026-04-23 11:59 | -25.79160 | 29.86652 | 23406 ft | 393 kts | 268° |
| 2026-04-23 11:59 | -25.79335 | 29.83673 | 22957 ft | 391 kts | 268° |
| 2026-04-23 12:00 | -25.79511 | 29.80667 | 22503 ft | 390 kts | 268° |
| 2026-04-23 12:00 | -25.79685 | 29.77672 | 22063 ft | 388 kts | 268° |
| 2026-04-23 12:00 | -25.79858 | 29.74694 | 21625 ft | 386 kts | 268° |
| 2026-04-23 12:00 | -25.80030 | 29.71727 | 21189 ft | 385 kts | 268° |
| 2026-04-23 12:01 | -25.80200 | 29.68769 | 20760 ft | 383 kts | 268° |
| 2026-04-23 12:01 | -25.80369 | 29.65824 | 20338 ft | 382 kts | 268° |
| 2026-04-23 12:01 | -25.80538 | 29.62886 | 19912 ft | 381 kts | 268° |
| 2026-04-23 12:01 | -25.80702 | 29.60003 | 19503 ft | 379 kts | 268° |
| 2026-04-23 12:02 | -25.80868 | 29.57088 | 19099 ft | 378 kts | 268° |
| 2026-04-23 12:02 | -25.81032 | 29.54184 | 18678 ft | 376 kts | 268° |
| 2026-04-23 12:02 | -25.81195 | 29.51298 | 18212 ft | 374 kts | 269° |
| 2026-04-23 12:02 | -25.81357 | 29.48423 | 17736 ft | 372 kts | 269° |
| 2026-04-23 12:03 | -25.81517 | 29.45565 | 17286 ft | 370 kts | 269° |
| 2026-04-23 12:03 | -25.81675 | 29.42725 | 16817 ft | 368 kts | 269° |
| 2026-04-23 12:03 | -25.81833 | 29.39892 | 16376 ft | 366 kts | 269° |
| 2026-04-23 12:03 | -25.81987 | 29.37116 | 15941 ft | 365 kts | 268° |
| 2026-04-23 12:04 | -25.82142 | 29.34308 | 15584 ft | 364 kts | 269° |
| 2026-04-23 12:04 | -25.82296 | 29.31504 | 15455 ft | 365 kts | 268° |
| 2026-04-23 12:04 | -25.82450 | 29.28690 | 15443 ft | 365 kts | 268° |
| 2026-04-23 12:04 | -25.82604 | 29.25880 | 15441 ft | 365 kts | 269° |
| 2026-04-23 12:05 | -25.82758 | 29.23062 | 15437 ft | 365 kts | 268° |
| 2026-04-23 12:05 | -25.82991 | 29.20253 | 15425 ft | 367 kts | 260° |
| 2026-04-23 12:05 | -25.83979 | 29.17646 | 15950 ft | 367 kts | 242° |
| 2026-04-23 12:05 | -25.85203 | 29.15212 | 17190 ft | 355 kts | 244° |
| 2026-04-23 12:06 | -25.86362 | 29.12884 | 18464 ft | 344 kts | 244° |
| 2026-04-23 12:06 | -25.87514 | 29.10597 | 19483 ft | 338 kts | 244° |
| 2026-04-23 12:06 | -25.89833 | 29.06037 | 20705 ft | 337 kts | 244° |
| 2026-04-23 12:07 | -25.90995 | 29.03762 | 20348 ft | 339 kts | 244° |
| 2026-04-23 12:07 | -25.92161 | 29.01478 | 19945 ft | 340 kts | 244° |
| 2026-04-23 12:07 | -25.93324 | 28.99201 | 19569 ft | 338 kts | 244° |
| 2026-04-23 12:07 | -25.94480 | 28.96934 | 19234 ft | 336 kts | 244° |
| 2026-04-23 12:08 | -25.95614 | 28.94711 | 18900 ft | 335 kts | 244° |
| 2026-04-23 12:08 | -25.96759 | 28.92464 | 18534 ft | 333 kts | 244° |
| 2026-04-23 12:08 | -25.97899 | 28.90226 | 18157 ft | 332 kts | 244° |
| 2026-04-23 12:08 | -25.99031 | 28.88005 | 17821 ft | 329 kts | 244° |
| 2026-04-23 12:09 | -26.00155 | 28.85796 | 17483 ft | 327 kts | 244° |
| 2026-04-23 12:09 | -26.01271 | 28.83601 | 17149 ft | 325 kts | 244° |
| 2026-04-23 12:09 | -26.02380 | 28.81421 | 16819 ft | 323 kts | 244° |
| 2026-04-23 12:09 | -26.03485 | 28.79246 | 16491 ft | 322 kts | 244° |
| 2026-04-23 12:10 | -26.04585 | 28.77081 | 16162 ft | 321 kts | 244° |
| 2026-04-23 12:10 | -26.05663 | 28.74958 | 15840 ft | 319 kts | 243° |
| 2026-04-23 12:10 | -26.06754 | 28.72809 | 15515 ft | 319 kts | 244° |
| 2026-04-23 12:10 | -26.07841 | 28.70665 | 15185 ft | 318 kts | 243° |
| 2026-04-23 12:11 | -26.08927 | 28.68523 | 14861 ft | 317 kts | 244° |
| 2026-04-23 12:11 | -26.10009 | 28.66387 | 14531 ft | 317 kts | 243° |
| 2026-04-23 12:11 | -26.10982 | 28.64469 | 14236 ft | 317 kts | 243° |
| 2026-04-23 12:11 | -26.12061 | 28.62336 | 13867 ft | 316 kts | 243° |
| 2026-04-23 12:12 | -26.13124 | 28.60236 | 13521 ft | 315 kts | 243° |
| 2026-04-23 12:12 | -26.14196 | 28.58117 | 13204 ft | 314 kts | 243° |
| 2026-04-23 12:12 | -26.15266 | 28.56000 | 12862 ft | 313 kts | 243° |
| 2026-04-23 12:12 | -26.16331 | 28.53893 | 12540 ft | 312 kts | 243° |
| 2026-04-23 12:13 | -26.17396 | 28.51785 | 12210 ft | 312 kts | 243° |
| 2026-04-23 12:13 | -26.18458 | 28.49683 | 11886 ft | 311 kts | 242° |
| 2026-04-23 12:13 | -26.19514 | 28.47589 | 11557 ft | 310 kts | 242° |
| 2026-04-23 12:13 | -26.20569 | 28.45500 | 11221 ft | 309 kts | 242° |
| 2026-04-23 12:14 | -26.21616 | 28.43421 | 10900 ft | 307 kts | 242° |
| 2026-04-23 12:14 | -26.22660 | 28.41348 | 10622 ft | 305 kts | 242° |
| 2026-04-23 12:14 | -26.23678 | 28.39328 | 10472 ft | 303 kts | 242° |
| 2026-04-23 12:14 | -26.24709 | 28.37280 | 10311 ft | 303 kts | 242° |
| 2026-04-23 12:15 | -26.25739 | 28.35235 | 10137 ft | 301 kts | 242° |
| 2026-04-23 12:15 | -26.26751 | 28.33223 | 9961 ft | 295 kts | 242° |
| 2026-04-23 12:15 | -26.27740 | 28.31256 | 9791 ft | 288 kts | 242° |
| 2026-04-23 12:15 | -26.28454 | 28.29227 | 9596 ft | 278 kts | 263° |
| 2026-04-23 12:16 | -26.28378 | 28.27138 | 9409 ft | 266 kts | 289° |
| 2026-04-23 12:16 | -26.27560 | 28.25405 | 9327 ft | 250 kts | 316° |
| 2026-04-23 12:16 | -26.26165 | 28.24320 | 9298 ft | 240 kts | 343° |
| 2026-04-23 12:16 | -26.24560 | 28.23964 | 9313 ft | 238 kts | 355° |
| 2026-04-23 12:17 | -26.22915 | 28.23766 | 8987 ft | 239 kts | 359° |
| 2026-04-23 12:17 | -26.21264 | 28.23726 | 8715 ft | 235 kts | 5° |
| 2026-04-23 12:17 | -26.19640 | 28.23874 | 8633 ft | 234 kts | 11° |
| 2026-04-23 12:17 | -26.18061 | 28.24295 | 8608 ft | 233 kts | 21° |
| 2026-04-23 12:18 | -26.16520 | 28.24803 | 8624 ft | 224 kts | 16° |
| 2026-04-23 12:18 | -26.15095 | 28.25264 | 8560 ft | 208 kts | 22° |
| 2026-04-23 12:18 | -26.13717 | 28.25843 | 7814 ft | 223 kts | 24° |
| 2026-04-23 12:18 | -26.12221 | 28.26470 | 7453 ft | 221 kts | 23° |
| 2026-04-23 12:19 | -26.10926 | 28.26969 | 8333 ft | 195 kts | 22° |
| 2026-04-23 12:19 | -26.09575 | 28.27469 | 8603 ft | 213 kts | 21° |
| 2026-04-23 12:19 | -26.08115 | 28.28001 | 8958 ft | 231 kts | 20° |
| 2026-04-23 12:19 | -26.06560 | 28.28532 | 9040 ft | 236 kts | 19° |
| 2026-04-23 12:20 | -26.04962 | 28.29064 | 8991 ft | 241 kts | 19° |
| 2026-04-23 12:20 | -26.03361 | 28.29609 | 8876 ft | 241 kts | 23° |
| 2026-04-23 12:20 | -26.02065 | 28.30698 | 8695 ft | 234 kts | 59° |
| 2026-04-23 12:20 | -26.01685 | 28.32418 | 8523 ft | 234 kts | 96° |
| 2026-04-23 12:21 | -26.02367 | 28.34009 | 8417 ft | 239 kts | 133° |
| 2026-04-23 12:21 | -26.03859 | 28.34841 | 8463 ft | 248 kts | 165° |
| 2026-04-23 12:21 | -26.05612 | 28.34997 | 8486 ft | 256 kts | 178° |
| 2026-04-23 12:21 | -26.07395 | 28.34933 | 8476 ft | 257 kts | 180° |
| 2026-04-23 12:22 | -26.09186 | 28.34864 | 8478 ft | 257 kts | 178° |
| 2026-04-23 12:22 | -26.10977 | 28.34794 | 8464 ft | 258 kts | 179° |
| 2026-04-23 12:22 | -26.12770 | 28.34733 | 8470 ft | 258 kts | 179° |
| 2026-04-23 12:22 | -26.14561 | 28.34672 | 8489 ft | 257 kts | 178° |
| 2026-04-23 12:23 | -26.16349 | 28.34616 | 8526 ft | 257 kts | 178° |
| 2026-04-23 12:23 | -26.18117 | 28.34560 | 8539 ft | 258 kts | 178° |
| 2026-04-23 12:23 | -26.19911 | 28.34502 | 8512 ft | 258 kts | 179° |
| 2026-04-23 12:23 | -26.21701 | 28.34311 | 8493 ft | 259 kts | 185° |
| 2026-04-23 12:24 | -26.23461 | 28.34059 | 8543 ft | 248 kts | 185° |
| 2026-04-23 12:24 | -26.25133 | 28.33817 | 8564 ft | 238 kts | 184° |
| 2026-04-23 12:24 | -26.26767 | 28.33567 | 8578 ft | 237 kts | 185° |
| 2026-04-23 12:24 | -26.28402 | 28.33331 | 8587 ft | 237 kts | 185° |
| 2026-04-23 12:25 | -26.30045 | 28.33103 | 8588 ft | 239 kts | 184° |
| 2026-04-23 12:25 | -26.31685 | 28.32866 | 8602 ft | 237 kts | 184° |
| 2026-04-23 12:25 | -26.33317 | 28.32639 | 8665 ft | 236 kts | 184° |
| 2026-04-23 12:25 | -26.34930 | 28.32412 | 8705 ft | 237 kts | 185° |
| 2026-04-23 12:26 | -26.36529 | 28.31966 | 8721 ft | 240 kts | 208° |
| 2026-04-23 12:26 | -26.37623 | 28.30618 | 8800 ft | 238 kts | 250° |
| 2026-04-23 12:26 | -26.37748 | 28.28825 | 8920 ft | 234 kts | 285° |
| 2026-04-23 12:26 | -26.37161 | 28.27145 | 9039 ft | 232 kts | 301° |
| 2026-04-23 12:27 | -26.36422 | 28.25537 | 9029 ft | 233 kts | 299° |
| 2026-04-23 12:27 | -26.35708 | 28.23910 | 9010 ft | 233 kts | 298° |
| 2026-04-23 12:27 | -26.35024 | 28.22319 | 9003 ft | 224 kts | 298° |
| 2026-04-23 12:27 | -26.34167 | 28.20969 | 8897 ft | 213 kts | 324° |
| 2026-04-23 12:28 | -26.32868 | 28.20293 | 8660 ft | 205 kts | 353° |
| 2026-04-23 12:28 | -26.31474 | 28.20259 | 8489 ft | 196 kts | 11° |
| 2026-04-23 12:28 | -26.30165 | 28.20555 | 8261 ft | 190 kts | 17° |
| 2026-04-23 12:28 | -26.28897 | 28.20936 | 8035 ft | 188 kts | 19° |
| 2026-04-23 12:29 | -26.27643 | 28.21331 | 7801 ft | 186 kts | 19° |
| 2026-04-23 12:29 | -26.26394 | 28.21722 | 7563 ft | 187 kts | 20° |
| 2026-04-23 12:29 | -26.25156 | 28.22107 | 7372 ft | 179 kts | 20° |
| 2026-04-23 12:29 | -26.23985 | 28.22472 | 7175 ft | 168 kts | 20° |
| 2026-04-23 12:30 | -26.22934 | 28.22800 | 6945 ft | 151 kts | 21° |
| 2026-04-23 12:30 | -26.21912 | 28.23096 | 6631 ft | 162 kts | 19° |
| 2026-04-23 12:30 | -26.20808 | 28.23414 | 6402 ft | 163 kts | 21° |
| 2026-04-23 12:30 | -26.19744 | 28.23749 | 6185 ft | 155 kts | 20° |
| 2026-04-23 12:31 | -26.18736 | 28.24020 | 6405 ft | 149 kts | 20° |
| 2026-04-23 12:31 | -26.17742 | 28.24365 | 6078 ft | 150 kts | 22° |
| 2026-04-23 12:31 | -26.16745 | 28.24708 | 5762 ft | 149 kts | 20° |
| 2026-04-23 12:31 | -26.15762 | 28.25029 | 5532 ft | 145 kts | 21° |
| 2026-04-23 12:32 | -26.14952 | 28.25294 | 5512 ft | 88 kts | 14° |
| 2026-04-23 12:32 | -26.14535 | 28.25412 | 5509 ft | 52 kts | 16° |
| 2026-04-23 12:32 | -26.14203 | 28.25472 | 5514 ft | 44 kts | 354° |
| 2026-04-23 12:32 | -26.14015 | 28.25433 | 5513 ft | 19 kts | 344° |
| 2026-04-23 12:33 | -26.13977 | 28.25420 | 5513 ft | 0 kts | 341° |
| 2026-04-23 12:34 | -26.13974 | 28.25419 | 5513 ft | 2 kts | 340° |
| 2026-04-23 12:34 | -26.13902 | 28.25406 | 5512 ft | 17 kts | 5° |
| 2026-04-23 12:35 | -26.13770 | 28.25443 | 5510 ft | 21 kts | 16° |
| 2026-04-23 12:35 | -26.13623 | 28.25489 | 5505 ft | 24 kts | 14° |
| 2026-04-23 12:35 | -26.13462 | 28.25523 | 5511 ft | 22 kts | 355° |
| 2026-04-23 12:35 | -26.13329 | 28.25495 | 5520 ft | 17 kts | 348° |
| 2026-04-23 12:36 | -26.13226 | 28.25471 | 5527 ft | 13 kts | 348° |
| 2026-04-23 12:36 | -26.13146 | 28.25453 | 5533 ft | 12 kts | 345° |
| 2026-04-23 12:36 | -26.13046 | 28.25406 | 5534 ft | 19 kts | 329° |
| 2026-04-23 12:36 | -26.12938 | 28.25305 | 5535 ft | 21 kts | 311° |
| 2026-04-23 12:37 | -26.12865 | 28.25162 | 5535 ft | 22 kts | 289° |
| 2026-04-23 12:37 | -26.12822 | 28.24992 | 5535 ft | 23 kts | 286° |
| 2026-04-23 12:37 | -26.12775 | 28.24814 | 5540 ft | 25 kts | 287° |
| 2026-04-23 12:37 | -26.12727 | 28.24627 | 5535 ft | 25 kts | 286° |
| 2026-04-23 12:38 | -26.12678 | 28.24438 | 5538 ft | 25 kts | 284° |
| 2026-04-23 12:38 | -26.12634 | 28.24247 | 5539 ft | 26 kts | 284° |
| 2026-04-23 12:38 | -26.12586 | 28.24049 | 5544 ft | 27 kts | 286° |
| 2026-04-23 12:38 | -26.12553 | 28.23917 | 5542 ft | 11 kts | 276° |
| 2026-04-23 12:39 | -26.12606 | 28.23864 | 5543 ft | 12 kts | 197° |
| 2026-04-23 12:39 | -26.12713 | 28.23831 | 5546 ft | 18 kts | 195° |
| 2026-04-23 12:39 | -26.12832 | 28.23788 | 5547 ft | 13 kts | 224° |
| 2026-04-23 12:39 | -26.12836 | 28.23745 | 5546 ft | 3 kts | 287° |
| 2026-04-23 12:40 | -26.12834 | 28.23728 | 5549 ft | 0 kts | 277° |
| 2026-04-23 12:40 | -26.12834 | 28.23727 | 5550 ft | 1 kts | 277° |
| 2026-04-23 12:40 | -26.12828 | 28.23676 | 5550 ft | 12 kts | 276° |
| 2026-04-23 12:41 | -26.12824 | 28.23590 | 5548 ft | 5 kts | 247° |
| 2026-04-23 12:41 | -26.12830 | 28.23584 | 5548 ft | 3 kts | 214° |
| 2026-04-23 12:41 | -26.12872 | 28.23581 | 5550 ft | 10 kts | 186° |
| 2026-04-23 12:41 | -26.12930 | 28.23575 | 5549 ft | 0 kts | 184° |